Terminal Aerodrome Forecast
Issued by NWS Melbourne, FL

Home | Current Version | Previous Version | Text Only | Print | Product List | Glossary On
Versions: 1 2 3 4 5 6 7 8 9 10 11 12 13
000
FTUS42 KMLB 302300 RRA
TAFVRB
TAF
KVRB 302354Z 3100/3124 12006KT P6SM BKN080
     FM310100 VRB03KT P6SM SCT080 BKN250
     FM311300 18004KT P6SM SCT020
     FM311700 12009KT P6SM VCTS BKN035CB
     FM312200 13007KT P6SM SCT040 BKN120=

USA.gov is the U.S. government's official web portal to all federal, state and local government web resources and services.